Time;durP1;ratioP1;P1;durP2;ratioP2;P2;SDS_P1;SDS_P2;PMS_P1;PMS_P2;Temp;Humidity;BMP_temperature;BMP_pressure;BME280_temperature;BME280_humidity;BME280_pressure;Samples;Min_cycle;Max_cycle;Signal;HPM_P1;HPM_P2
2021/04/13 00:02:18;;;;;;;8.30;7.50;;;1.70;99.90;;;;;;4950432;28;20477;-83
2021/04/13 00:04:46;;;;;;;9.00;6.97;;;1.80;99.90;;;;;;4970957;28;20444;-82
2021/04/13 00:07:15;;;;;;;11.00;7.37;;;1.90;99.90;;;;;;4978324;28;20450;-83
2021/04/13 00:09:43;;;;;;;7.27;6.67;;;1.90;99.90;;;;;;4975430;28;20440;-83
2021/04/13 00:12:16;;;;;;;7.83;7.03;;;1.90;99.90;;;;;;4973448;28;21007;-83
2021/04/13 00:15:06;;;;;;;8.10;7.00;;;1.80;99.90;;;;;;4971724;28;20449;-83
2021/04/13 00:17:32;;;;;;;8.97;7.67;;;1.80;99.90;;;;;;4965285;28;20522;-83
2021/04/13 00:20:06;;;;;;;9.40;7.20;;;1.90;99.90;;;;;;4970579;28;20445;-83
2021/04/13 00:22:32;;;;;;;8.13;7.30;;;1.90;99.90;;;;;;4972861;28;20781;-83
2021/04/13 00:24:58;;;;;;;8.60;6.90;;;1.90;99.90;;;;;;4973616;28;20826;-83
2021/04/13 00:27:27;;;;;;;7.00;6.40;;;1.80;99.90;;;;;;4974747;28;20456;-83
2021/04/13 00:30:09;;;;;;;7.57;6.73;;;1.90;99.90;;;;;;4978792;28;20460;-83
2021/04/13 00:32:37;;;;;;;7.03;6.33;;;1.80;99.90;;;;;;4961110;28;20441;-83
2021/04/13 00:36:00;;;;;;;7.67;6.87;;;1.70;99.90;;;;;;4969380;28;20456;-83
2021/04/13 00:37:49;;;;;;;7.83;7.03;;;1.70;99.90;;;;;;4964839;28;20550;-83
2021/04/13 00:40:36;;;;;;;10.37;6.70;;;1.70;99.90;;;;;;4971031;28;20444;-83
2021/04/13 00:43:04;;;;;;;6.93;6.23;;;1.60;99.90;;;;;;4973744;28;20228;-83
2021/04/13 00:45:33;;;;;;;8.00;6.37;;;1.60;99.90;;;;;;4975787;28;20540;-83
2021/04/13 00:48:01;;;;;;;6.63;5.93;;;1.50;99.90;;;;;;4975859;28;20452;-83
2021/04/13 00:50:30;;;;;;;6.20;5.60;;;1.60;99.90;;;;;;4975469;28;20444;-83
2021/04/13 00:52:59;;;;;;;6.97;5.73;;;1.60;99.90;;;;;;4972550;28;20456;-83
2021/04/13 00:55:33;;;;;;;7.33;6.43;;;1.60;99.90;;;;;;4959611;28;20441;-82
2021/04/13 00:58:21;;;;;;;6.90;6.30;;;1.60;99.90;;;;;;4959567;28;20448;-83
2021/04/13 01:01:04;;;;;;;7.10;6.20;;;1.50;99.90;;;;;;4972558;28;20452;-83
2021/04/13 01:03:30;;;;;;;8.30;5.43;;;1.40;99.90;;;;;;4975136;28;20481;-83
2021/04/13 01:05:58;;;;;;;6.33;5.73;;;1.40;99.90;;;;;;4977143;28;20452;-83
2021/04/13 01:08:37;;;;;;;6.43;5.83;;;1.50;99.90;;;;;;4959915;28;20449;-83
2021/04/13 01:11:14;;;;;;;7.67;5.47;;;1.50;99.90;;;;;;4957566;28;20447;-83
2021/04/13 01:13:48;;;;;;;6.23;5.67;;;1.40;99.90;;;;;;4952019;28;20449;-83
2021/04/13 01:16:15;;;;;;;6.40;5.90;;;1.30;99.90;;;;;;4971414;28;20448;-83
2021/04/13 01:18:43;;;;;;;8.50;6.20;;;1.40;99.90;;;;;;4970562;28;21087;-83
2021/04/13 01:21:26;;;;;;;6.60;5.90;;;1.50;99.90;;;;;;4958533;28;20451;-83
2021/04/13 01:23:57;;;;;;;7.10;6.37;;;1.50;99.90;;;;;;4973383;28;20998;-83
2021/04/13 01:26:24;;;;;;;6.70;6.00;;;1.60;99.90;;;;;;4962754;28;20457;-83
2021/04/13 01:28:51;;;;;;;6.47;5.87;;;1.70;99.90;;;;;;4944113;28;20578;-83
2021/04/13 01:31:44;;;;;;;7.60;6.77;;;1.70;99.90;;;;;;4958202;28;20480;-83
2021/04/13 01:34:32;;;;;;;7.53;5.80;;;1.80;99.90;;;;;;4951093;28;21546;-83
2021/04/13 01:37:06;;;;;;;6.80;6.10;;;1.70;99.90;;;;;;4963876;28;20909;-83
2021/04/13 01:39:41;;;;;;;7.20;6.50;;;1.80;99.90;;;;;;4970542;28;20474;-83
2021/04/13 01:42:08;;;;;;;6.73;6.03;;;1.90;99.90;;;;;;4956709;28;20472;-83
2021/04/13 01:44:41;;;;;;;6.67;6.00;;;1.80;99.90;;;;;;4961006;28;20441;-83
2021/04/13 01:47:09;;;;;;;5.70;5.20;;;1.80;99.90;;;;;;4974621;28;20479;-83
2021/04/13 01:49:41;;;;;;;6.23;5.60;;;1.80;99.90;;;;;;4959143;28;21661;-83
2021/04/13 01:52:14;;;;;;;6.37;5.77;;;1.80;99.90;;;;;;4958513;28;20906;-83
2021/04/13 01:54:40;;;;;;;6.97;5.80;;;1.80;99.90;;;;;;4957077;28;21207;-83
2021/04/13 01:57:23;;;;;;;6.57;5.97;;;1.60;99.90;;;;;;4958565;28;20430;-83
2021/04/13 01:59:55;;;;;;;8.03;5.90;;;1.50;99.90;;;;;;4957564;28;20455;-83
2021/04/13 02:02:29;;;;;;;6.77;6.07;;;1.40;99.90;;;;;;4972863;28;20878;-83
2021/04/13 02:05:03;;;;;;;7.07;6.40;;;1.40;99.90;;;;;;4950648;28;20878;-83
2021/04/13 02:10:45;;;;;;;7.50;6.80;;;1.30;99.90;;;;;;4976522;28;24056;-83
2021/04/13 02:13:22;;;;;;;6.83;6.10;;;1.20;99.90;;;;;;4979317;28;20441;-83
2021/04/13 02:15:55;;;;;;;6.37;5.70;;;1.10;99.90;;;;;;4958489;28;20506;-83
2021/04/13 02:18:34;;;;;;;6.00;5.50;;;1.10;99.90;;;;;;4961215;28;21068;-83
2021/04/13 02:21:05;;;;;;;6.00;5.50;;;1.10;99.90;;;;;;4966430;28;20452;-83
2021/04/13 02:23:32;;;;;;;7.10;6.40;;;1.10;99.90;;;;;;4973919;28;20480;-83
2021/04/13 02:26:01;;;;;;;6.23;5.63;;;1.00;99.90;;;;;;4974576;28;20553;-83
2021/04/13 02:28:29;;;;;;;6.50;5.47;;;0.90;99.90;;;;;;4971529;28;20456;-83
2021/04/13 02:30:57;;;;;;;6.83;6.13;;;0.90;99.90;;;;;;4978216;28;20437;-83
2021/04/13 02:33:36;;;;;;;5.90;5.30;;;0.90;99.90;;;;;;4973653;28;20753;-83
2021/04/13 02:36:32;;;;;;;6.37;5.43;;;0.90;99.90;;;;;;4957743;28;22124;-83
2021/04/13 02:39:00;;;;;;;5.93;5.43;;;0.80;99.90;;;;;;4976286;28;20499;-83
2021/04/13 02:41:31;;;;;;;5.90;5.30;;;0.70;99.90;;;;;;4960704;28;20548;-83
2021/04/13 02:44:03;;;;;;;8.90;6.67;;;0.60;99.90;;;;;;4956874;28;20484;-83
2021/04/13 02:46:32;;;;;;;7.87;7.07;;;0.60;99.90;;;;;;4959252;28;20440;-83
2021/04/13 02:49:07;;;;;;;7.10;5.63;;;0.50;99.90;;;;;;4959114;28;20484;-83
2021/04/13 02:51:38;;;;;;;9.30;6.07;;;0.50;99.90;;;;;;4973045;28;20543;-83
2021/04/13 02:54:12;;;;;;;7.40;6.70;;;0.50;99.90;;;;;;4973347;28;20433;-83
2021/04/13 02:56:42;;;;;;;7.20;6.20;;;0.50;99.90;;;;;;4972723;28;20453;-83
2021/04/13 02:59:11;;;;;;;6.23;5.63;;;0.50;99.90;;;;;;4975362;28;20451;-83
2021/04/13 03:01:40;;;;;;;7.33;6.50;;;0.50;99.90;;;;;;4971779;28;20491;-83
2021/04/13 03:04:10;;;;;;;7.03;6.33;;;0.60;99.90;;;;;;4973308;28;20548;-83
2021/04/13 03:06:43;;;;;;;8.23;6.30;;;0.60;99.90;;;;;;4972684;28;20499;-83
2021/04/13 03:09:10;;;;;;;8.07;6.33;;;0.60;99.90;;;;;;4976036;28;20540;-83
2021/04/13 03:11:37;;;;;;;7.37;6.67;;;0.50;99.90;;;;;;4977119;28;20504;-83
2021/04/13 03:14:04;;;;;;;9.60;8.60;;;0.60;99.90;;;;;;4964279;28;20492;-83
2021/04/13 03:16:43;;;;;;;9.37;7.83;;;0.50;99.90;;;;;;4964244;28;20449;-83
2021/04/13 03:19:14;;;;;;;13.93;8.20;;;0.40;99.90;;;;;;4966967;28;20451;-83
2021/04/13 03:21:45;;;;;;;9.93;7.67;;;0.40;99.90;;;;;;4961049;28;21024;-83
2021/04/13 03:24:14;;;;;;;11.07;8.60;;;0.40;99.90;;;;;;4976799;28;20565;-82
2021/04/13 03:26:54;;;;;;;8.97;8.07;;;0.40;99.90;;;;;;4978109;28;20437;-83
2021/04/13 03:29:42;;;;;;;11.07;8.30;;;0.40;99.90;;;;;;4946733;28;20496;-83
2021/04/13 03:32:10;;;;;;;11.40;9.70;;;0.40;99.90;;;;;;4955148;28;20456;-83
2021/04/13 03:34:41;;;;;;;9.60;8.33;;;0.30;99.90;;;;;;4970169;28;20616;-83
2021/04/13 03:37:07;;;;;;;10.00;8.43;;;0.50;99.90;;;;;;4977221;28;20888;-83
2021/04/13 03:39:39;;;;;;;8.00;7.20;;;0.60;99.90;;;;;;4977669;28;20450;-83
2021/04/13 03:42:06;;;;;;;8.00;7.20;;;0.70;99.90;;;;;;4962567;28;20527;-83
2021/04/13 03:44:37;;;;;;;7.80;6.60;;;0.60;99.90;;;;;;4976621;28;20467;-83
2021/04/13 03:47:13;;;;;;;7.83;6.60;;;0.60;99.90;;;;;;4974867;28;20800;-83
2021/04/13 03:49:41;;;;;;;7.10;6.40;;;0.70;99.90;;;;;;4961131;28;20452;-83
2021/04/13 03:52:17;;;;;;;7.60;6.63;;;0.80;99.90;;;;;;4961005;28;20445;-83
2021/04/13 03:54:42;;;;;;;9.27;8.00;;;0.70;99.90;;;;;;4960797;28;20444;-83
2021/04/13 03:57:09;;;;;;;9.10;7.80;;;0.70;99.90;;;;;;4977571;28;20446;-83
2021/04/13 03:59:39;;;;;;;9.90;8.43;;;0.70;99.90;;;;;;4974499;28;20240;-83
2021/04/13 04:02:07;;;;;;;9.40;7.50;;;0.60;99.90;;;;;;4960268;28;20468;-83
2021/04/13 04:04:39;;;;;;;10.67;8.17;;;0.50;99.90;;;;;;4974583;28;20451;-83
2021/04/13 04:07:34;;;;;;;9.30;8.40;;;0.50;99.90;;;;;;4960342;28;20449;-83
2021/04/13 04:10:00;;;;;;;8.67;7.77;;;0.60;99.90;;;;;;4974982;28;21625;-83
2021/04/13 04:12:31;;;;;;;8.90;6.70;;;0.60;99.90;;;;;;4953958;28;20452;-83
2021/04/13 04:15:01;;;;;;;9.57;8.20;;;0.50;99.90;;;;;;4962351;28;20540;-83
2021/04/13 04:17:30;;;;;;;8.80;7.90;;;0.50;99.90;;;;;;4972759;28;20816;-83
2021/04/13 04:20:08;;;;;;;8.20;7.43;;;0.50;99.90;;;;;;4958783;28;21184;-83
2021/04/13 04:22:36;;;;;;;10.63;8.00;;;0.50;99.90;;;;;;4978257;28;20479;-83
2021/04/13 04:25:53;;;;;;;8.23;7.23;;;0.50;99.90;;;;;;4977675;28;20448;-83
2021/04/13 04:28:31;;;;;;;9.23;7.90;;;0.50;99.90;;;;;;4966286;28;20973;-83
2021/04/13 04:31:19;;;;;;;8.07;7.27;;;0.40;99.90;;;;;;4977247;28;20475;-83
2021/04/13 04:33:45;;;;;;;10.70;7.47;;;0.40;99.90;;;;;;4963164;28;21265;-83
2021/04/13 04:36:39;;;;;;;7.10;6.40;;;0.30;99.90;;;;;;4962866;28;21045;-83
2021/04/13 04:39:26;;;;;;;8.80;7.43;;;0.30;99.90;;;;;;4963730;28;20529;-83
2021/04/13 04:41:53;;;;;;;10.00;7.60;;;0.40;99.90;;;;;;4965920;28;20530;-83
2021/04/13 04:44:30;;;;;;;9.07;7.90;;;0.30;99.90;;;;;;4993140;28;20802;-83
2021/04/13 04:46:59;;;;;;;11.30;7.10;;;0.30;99.90;;;;;;4956056;28;20448;-83
2021/04/13 04:49:47;;;;;;;6.87;6.27;;;0.30;99.90;;;;;;4951432;28;20452;-83
2021/04/13 04:52:15;;;;;;;7.13;6.40;;;0.20;99.90;;;;;;4975657;28;20557;-83
2021/04/13 04:54:41;;;;;;;7.90;7.00;;;0.10;99.90;;;;;;4975224;28;20453;-83
2021/04/13 04:57:06;;;;;;;9.63;8.00;;;0.10;99.90;;;;;;4978974;28;20547;-83
2021/04/13 04:59:32;;;;;;;8.80;7.67;;;0.10;99.90;;;;;;4978106;28;20785;-83
2021/04/13 05:01:58;;;;;;;8.10;6.73;;;0.10;99.90;;;;;;4976031;28;20276;-83
2021/04/13 05:04:23;;;;;;;7.60;6.87;;;0.10;99.90;;;;;;4957565;28;20761;-83
2021/04/13 05:06:49;;;;;;;8.30;7.50;;;0.00;99.90;;;;;;4975530;28;20186;-83
2021/04/13 05:09:15;;;;;;;14.73;7.53;;;0.00;99.90;;;;;;4957803;28;20580;-83
2021/04/13 05:11:40;;;;;;;8.00;6.30;;;0.00;99.90;;;;;;4961206;28;20189;-83
2021/04/13 05:14:06;;;;;;;8.10;7.00;;;0.10;99.90;;;;;;4973750;28;20273;-83
2021/04/13 05:16:31;;;;;;;10.00;7.60;;;0.20;99.90;;;;;;4962669;28;20186;-83
2021/04/13 05:18:57;;;;;;;8.03;5.83;;;0.30;99.90;;;;;;4957172;28;20632;-83
2021/04/13 05:21:23;;;;;;;7.70;6.90;;;0.30;99.90;;;;;;4974088;28;20190;-83
2021/04/13 05:23:48;;;;;;;9.37;7.23;;;0.40;99.90;;;;;;4960745;28;20687;-83
2021/04/13 05:26:14;;;;;;;9.67;7.50;;;0.40;99.90;;;;;;4960517;28;20680;-83
2021/04/13 05:28:40;;;;;;;8.33;7.43;;;0.40;99.90;;;;;;4972306;28;20568;-83
2021/04/13 05:31:06;;;;;;;8.43;6.87;;;0.50;99.90;;;;;;4965161;28;20190;-83
2021/04/13 05:33:32;;;;;;;8.70;7.60;;;0.50;99.90;;;;;;4972682;28;20767;-83
2021/04/13 05:35:59;;;;;;;13.37;7.83;;;0.50;99.90;;;;;;4957987;28;20500;-83
2021/04/13 05:38:30;;;;;;;10.73;8.73;;;0.60;99.90;;;;;;4972912;28;20815;-83
2021/04/13 05:40:59;;;;;;;8.97;8.00;;;0.70;99.90;;;;;;4970380;28;20803;-83
2021/04/13 05:43:25;;;;;;;8.70;7.80;;;0.80;99.90;;;;;;4959378;28;20827;-83
2021/04/13 05:45:51;;;;;;;10.20;8.13;;;1.00;99.90;;;;;;4974026;28;20445;-83
2021/04/13 05:48:19;;;;;;;9.37;8.20;;;1.00;99.90;;;;;;4977776;28;20464;-83
2021/04/13 05:50:46;;;;;;;10.10;8.07;;;1.10;99.90;;;;;;4961455;28;20508;-83
2021/04/13 05:53:13;;;;;;;9.33;8.40;;;1.10;99.90;;;;;;4948208;28;20458;-83
2021/04/13 05:55:41;;;;;;;11.73;8.50;;;1.10;99.90;;;;;;4974489;28;20488;-83
2021/04/13 05:58:15;;;;;;;9.40;8.50;;;1.00;99.90;;;;;;4961188;28;20452;-83
2021/04/13 06:00:42;;;;;;;10.10;9.10;;;1.30;99.90;;;;;;4960733;28;20536;-83
2021/04/13 06:03:13;;;;;;;9.67;8.30;;;1.40;99.90;;;;;;4977577;28;20487;-83
2021/04/13 06:05:39;;;;;;;9.33;8.33;;;1.40;99.90;;;;;;4974219;28;20503;-83
2021/04/13 06:08:05;;;;;;;14.53;11.17;;;1.50;99.90;;;;;;4962028;28;20528;-83
2021/04/13 06:10:31;;;;;;;32.60;17.50;;;1.60;99.90;;;;;;4952009;28;20878;-83
2021/04/13 06:12:58;;;;;;;16.80;12.30;;;1.70;99.90;;;;;;4962494;28;20799;-83
2021/04/13 06:15:27;;;;;;;11.27;9.20;;;1.70;99.90;;;;;;4976838;28;20445;-84
2021/04/13 06:17:53;;;;;;;8.90;7.97;;;1.90;99.90;;;;;;4973391;28;20443;-83
2021/04/13 06:20:20;;;;;;;9.50;8.40;;;1.90;99.90;;;;;;4971015;28;20498;-83
2021/04/13 06:22:47;;;;;;;11.03;7.23;;;1.90;99.90;;;;;;4975932;28;23824;-83
2021/04/13 06:25:16;;;;;;;10.10;8.53;;;1.90;99.90;;;;;;4957680;28;20441;-83
2021/04/13 06:27:41;;;;;;;11.43;9.17;;;2.00;99.90;;;;;;4972520;28;20452;-83
2021/04/13 06:30:08;;;;;;;9.07;8.17;;;2.20;99.90;;;;;;4972628;28;20449;-83
2021/04/13 06:32:34;;;;;;;8.67;7.90;;;2.20;99.90;;;;;;4962104;28;20197;-83
2021/04/13 06:35:02;;;;;;;11.60;7.53;;;2.20;99.90;;;;;;4972075;28;20459;-83
2021/04/13 06:37:28;;;;;;;9.73;8.37;;;2.00;99.90;;;;;;4959142;28;20210;-83
2021/04/13 06:39:53;;;;;;;10.53;9.17;;;1.90;99.90;;;;;;4955214;28;20433;-84
2021/04/13 06:42:35;;;;;;;10.87;8.40;;;2.10;99.90;;;;;;4957631;28;20527;-83
2021/04/13 06:45:35;;;;;;;11.10;8.70;;;2.20;99.90;;;;;;4961758;28;20823;-83
2021/04/13 06:48:07;;;;;;;9.63;8.63;;;2.40;99.90;;;;;;4977788;28;20780;-84
2021/04/13 06:50:49;;;;;;;9.00;8.10;;;2.70;99.90;;;;;;4978532;28;20772;-84
2021/04/13 06:53:55;;;;;;;9.47;8.10;;;3.00;99.90;;;;;;4993744;28;20447;-83
2021/04/13 06:56:24;;;;;;;9.70;8.50;;;3.30;99.90;;;;;;4956162;28;20534;-83
2021/04/13 06:59:17;;;;;;;11.43;10.00;;;3.30;99.90;;;;;;4973892;28;21122;-82
2021/04/13 07:01:58;;;;;;;9.83;8.83;;;3.30;99.90;;;;;;4957186;28;20601;-83
2021/04/13 07:04:53;;;;;;;8.93;8.07;;;3.30;99.90;;;;;;4962763;28;20563;-87
2021/04/13 07:07:52;;;;;;;10.80;9.77;;;3.30;99.90;;;;;;4954272;28;20772;-82
2021/04/13 07:10:33;;;;;;;10.43;9.23;;;3.50;99.90;;;;;;4976765;28;20885;-81
2021/04/13 07:13:10;;;;;;;9.43;8.53;;;3.80;99.90;;;;;;4971720;28;20445;-82
2021/04/13 07:15:57;;;;;;;10.47;9.00;;;3.90;99.90;;;;;;4974502;28;20451;-82
2021/04/13 07:18:36;;;;;;;11.60;9.20;;;3.90;99.90;;;;;;4972610;28;20460;-82
2021/04/13 07:21:13;;;;;;;10.00;9.00;;;4.10;99.90;;;;;;4970778;28;20433;-82
2021/04/13 07:23:53;;;;;;;11.40;9.33;;;4.30;99.90;;;;;;4960009;28;21024;-83
2021/04/13 07:26:35;;;;;;;10.17;9.17;;;4.20;99.90;;;;;;4964358;28;20444;-82
2021/04/13 07:29:12;;;;;;;12.87;10.33;;;4.20;99.90;;;;;;4974915;28;20454;-82
2021/04/13 07:31:54;;;;;;;15.07;10.20;;;4.00;99.90;;;;;;4958655;28;20437;-82
2021/04/13 07:34:21;;;;;;;11.63;10.40;;;4.10;99.90;;;;;;4938789;28;20557;-83
2021/04/13 07:36:54;;;;;;;12.00;10.50;;;4.10;99.90;;;;;;4969585;28;20477;-82
2021/04/13 07:39:20;;;;;;;13.90;10.43;;;4.20;99.90;;;;;;4962957;28;20449;-83
2021/04/13 07:41:53;;;;;;;12.57;11.20;;;4.30;99.90;;;;;;4942634;28;20458;-83
2021/04/13 07:44:50;;;;;;;15.23;11.20;;;4.60;99.90;;;;;;4966484;28;20213;-86
2021/04/13 07:47:19;;;;;;;11.80;10.47;;;4.90;99.90;;;;;;4944206;28;20437;-84
2021/04/13 07:49:54;;;;;;;13.93;12.53;;;5.40;99.90;;;;;;4950196;28;20457;-83
2021/04/13 07:52:29;;;;;;;12.20;11.00;;;5.80;99.90;;;;;;4957168;28;20801;-85
2021/04/13 07:55:23;;;;;;;12.50;10.97;;;5.70;99.90;;;;;;4973605;28;21032;-82
2021/04/13 07:58:30;;;;;;;14.70;12.63;;;5.50;99.90;;;;;;4960408;28;20546;-83
2021/04/13 08:00:57;;;;;;;12.10;10.97;;;5.70;99.90;;;;;;4948138;28;20445;-81
2021/04/13 08:03:28;;;;;;;12.23;11.03;;;5.60;99.90;;;;;;4972020;28;20485;-81
2021/04/13 08:06:00;;;;;;;13.90;12.60;;;6.00;99.90;;;;;;4970717;28;20429;-82
2021/04/13 08:08:30;;;;;;;13.23;11.50;;;6.20;99.90;;;;;;4985085;28;20441;-82
2021/04/13 08:11:22;;;;;;;12.50;10.87;;;6.30;99.90;;;;;;4968378;28;20449;-82
2021/04/13 08:13:52;;;;;;;12.23;11.00;;;6.80;99.90;;;;;;4961486;28;20449;-82
2021/04/13 08:16:41;;;;;;;14.00;11.60;;;6.70;99.90;;;;;;4972634;28;20453;-82
2021/04/13 08:19:28;;;;;;;12.33;11.10;;;6.30;99.90;;;;;;4971413;28;20998;-83
2021/04/13 08:22:13;;;;;;;12.77;11.57;;;6.60;99.90;;;;;;4971230;28;20449;-82
2021/04/13 08:24:50;;;;;;;14.77;11.90;;;6.90;99.90;;;;;;4956803;28;20795;-82
2021/04/13 08:27:18;;;;;;;11.63;10.53;;;6.90;99.90;;;;;;4954178;28;20450;-82
2021/04/13 08:29:53;;;;;;;14.27;11.60;;;7.00;99.90;;;;;;4972922;28;20463;-84
2021/04/13 08:35:33;;;;;;;12.10;10.87;;;7.30;99.90;;;;;;4968713;28;20475;-82
2021/04/13 08:38:08;;;;;;;11.77;10.67;;;7.40;99.90;;;;;;4958991;28;20446;-82
2021/04/13 08:41:04;;;;;;;11.60;10.50;;;7.70;99.30;;;;;;4970270;28;20451;-82
2021/04/13 08:44:02;;;;;;;11.50;10.30;;;8.00;98.40;;;;;;4946022;28;20504;-82
2021/04/13 08:46:39;;;;;;;12.07;10.87;;;8.40;98.70;;;;;;4973236;28;20857;-83
2021/04/13 08:49:10;;;;;;;9.47;8.47;;;8.70;98.80;;;;;;4972285;28;20507;-83
2021/04/13 08:51:46;;;;;;;10.30;9.30;;;9.20;95.60;;;;;;4953299;28;20478;-82
2021/04/13 08:54:15;;;;;;;10.80;9.70;;;9.50;96.00;;;;;;4941965;28;20504;-82
2021/04/13 08:57:01;;;;;;;9.80;8.63;;;9.70;93.60;;;;;;4952895;28;20685;-81
2021/04/13 08:59:44;;;;;;;10.17;9.10;;;8.60;93.30;;;;;;4966055;28;20545;-81
2021/04/13 09:02:28;;;;;;;12.30;9.20;;;8.10;94.40;;;;;;4945200;28;20442;-81
2021/04/13 09:05:23;;;;;;;10.10;9.20;;;7.90;96.20;;;;;;4980186;28;20454;-80
2021/04/13 09:08:07;;;;;;;8.97;8.07;;;7.70;95.40;;;;;;4973219;28;20483;-81
2021/04/13 09:10:33;;;;;;;10.57;9.57;;;7.30;96.10;;;;;;4976294;28;21251;-81
2021/04/13 09:13:21;;;;;;;10.87;9.80;;;7.20;99.10;;;;;;4955582;28;20984;-81
2021/04/13 09:16:08;;;;;;;10.80;9.53;;;6.90;99.90;;;;;;4970763;28;20891;-81
2021/04/13 09:18:46;;;;;;;10.70;9.60;;;6.80;99.90;;;;;;4956704;28;20449;-81
2021/04/13 09:21:23;;;;;;;10.00;9.10;;;7.40;99.90;;;;;;4956299;28;20500;-81
2021/04/13 09:23:57;;;;;;;12.80;10.60;;;7.10;98.80;;;;;;4973998;28;20481;-81
2021/04/13 09:26:38;;;;;;;10.93;9.93;;;6.90;99.30;;;;;;4966318;28;20484;-81
2021/04/13 09:29:07;;;;;;;11.77;9.80;;;6.80;98.90;;;;;;4970768;28;20445;-82
2021/04/13 09:31:44;;;;;;;11.50;10.30;;;7.20;99.10;;;;;;4958861;28;20451;-81
2021/04/13 09:34:27;;;;;;;10.37;9.23;;;7.00;97.00;;;;;;4958280;28;21457;-80
2021/04/13 09:37:11;;;;;;;11.97;10.70;;;6.80;96.80;;;;;;4972914;28;20460;-81
2021/04/13 09:39:55;;;;;;;10.63;9.60;;;7.30;98.20;;;;;;4974243;28;20460;-82
2021/04/13 09:42:49;;;;;;;12.07;10.80;;;7.60;94.60;;;;;;4971882;28;21238;-82
2021/04/13 09:45:17;;;;;;;8.40;7.60;;;7.80;95.00;;;;;;4972185;28;20859;-81
2021/04/13 09:48:07;;;;;;;10.03;9.03;;;7.30;93.50;;;;;;4933788;28;20495;-82
2021/04/13 09:51:02;;;;;;;13.63;8.20;;;7.60;94.50;;;;;;4949262;28;20457;-83
2021/04/13 09:53:39;;;;;;;14.90;8.37;;;9.00;95.10;;;;;;4955192;28;20451;-83
2021/04/13 09:56:26;;;;;;;9.37;8.53;;;10.20;91.10;;;;;;4974137;28;20806;-83
2021/04/13 09:59:19;;;;;;;9.73;7.30;;;10.00;86.60;;;;;;4990978;28;20448;-84
2021/04/13 10:02:11;;;;;;;8.70;7.80;;;9.90;87.30;;;;;;4972599;28;20959;-85
2021/04/13 10:04:54;;;;;;;7.87;7.07;;;9.80;87.30;;;;;;4972849;28;20942;-85
2021/04/13 10:07:23;;;;;;;7.90;7.20;;;9.50;87.00;;;;;;4969962;28;20545;-84
2021/04/13 10:09:49;;;;;;;7.70;7.10;;;9.40;82.60;;;;;;4975556;28;20457;-85
2021/04/13 10:12:30;;;;;;;10.17;7.37;;;9.10;84.10;;;;;;4946909;28;20860;-85
2021/04/13 10:15:33;;;;;;;7.40;6.70;;;9.00;86.40;;;;;;4975751;28;20483;-85
2021/04/13 10:18:20;;;;;;;8.63;7.73;;;9.40;80.40;;;;;;4979990;28;20544;-84
2021/04/13 10:20:59;;;;;;;7.77;6.97;;;10.00;81.90;;;;;;4979881;28;20462;-83
2021/04/13 10:23:40;;;;;;;7.20;6.60;;;10.00;78.70;;;;;;4973269;28;20483;-83
2021/04/13 10:26:17;;;;;;;8.43;7.63;;;9.70;77.20;;;;;;4973864;28;20507;-83
2021/04/13 10:28:48;;;;;;;8.00;7.20;;;9.90;78.50;;;;;;4963636;28;20471;-82
2021/04/13 10:31:39;;;;;;;9.10;8.20;;;10.30;80.30;;;;;;4976983;28;20456;-83
2021/04/13 10:34:37;;;;;;;7.77;7.07;;;11.50;74.50;;;;;;4972947;28;20470;-83
2021/04/13 10:37:41;;;;;;;8.60;7.90;;;12.30;67.50;;;;;;4957542;28;20445;-82
2021/04/13 10:40:19;;;;;;;8.50;7.70;;;12.20;68.30;;;;;;4971347;28;20455;-82
2021/04/13 10:43:03;;;;;;;8.00;7.30;;;10.30;64.40;;;;;;4972806;28;21039;-83
2021/04/13 10:45:43;;;;;;;8.00;7.30;;;9.50;68.70;;;;;;4981901;28;20567;-82
2021/04/13 10:48:31;;;;;;;7.90;7.20;;;10.10;73.50;;;;;;4958776;28;20444;-84
2021/04/13 10:51:16;;;;;;;7.57;6.97;;;11.00;68.30;;;;;;4958053;28;20792;-84
2021/04/13 10:53:44;;;;;;;6.73;6.13;;;10.70;59.80;;;;;;4972288;28;20445;-83
2021/04/13 10:56:10;;;;;;;7.43;6.73;;;10.90;61.50;;;;;;4973973;28;20498;-84
2021/04/13 10:59:05;;;;;;;8.57;7.77;;;11.80;62.90;;;;;;4961747;28;20448;-84
2021/04/13 11:02:13;;;;;;;8.33;7.50;;;11.90;57.20;;;;;;4956620;28;20190;-84
2021/04/13 11:05:11;;;;;;;7.13;6.47;;;11.50;55.00;;;;;;4954284;28;20590;-84
2021/04/13 11:07:39;;;;;;;6.20;5.60;;;10.50;52.80;;;;;;4925582;28;20482;-84
2021/04/13 11:10:08;;;;;;;6.90;6.30;;;10.10;55.50;;;;;;4971859;28;20470;-84
2021/04/13 11:12:55;;;;;;;6.60;6.00;;;10.20;57.90;;;;;;4975181;28;20459;-84
2021/04/13 11:15:26;;;;;;;6.50;6.00;;;10.20;57.20;;;;;;4973037;28;21077;-84
2021/04/13 11:17:59;;;;;;;9.40;7.50;;;10.30;58.10;;;;;;4956086;28;20445;-84
2021/04/13 11:20:52;;;;;;;6.43;5.87;;;10.80;56.60;;;;;;4950034;28;20537;-84
2021/04/13 11:23:52;;;;;;;6.23;5.67;;;11.00;52.10;;;;;;4952088;28;20476;-84
2021/04/13 11:26:47;;;;;;;8.00;7.30;;;11.90;58.00;;;;;;4956474;28;20878;-83
2021/04/13 11:29:30;;;;;;;7.17;6.47;;;11.90;55.60;;;;;;4919291;28;20552;-84
2021/04/13 11:32:26;;;;;;;7.50;6.80;;;11.90;58.50;;;;;;4964725;28;20903;-84
2021/04/13 11:35:09;;;;;;;7.70;6.70;;;11.20;53.30;;;;;;4970844;28;20484;-84
2021/04/13 11:38:17;;;;;;;6.30;5.70;;;10.30;53.30;;;;;;4959727;28;20451;-84
2021/04/13 11:41:23;;;;;;;5.70;5.20;;;9.60;54.30;;;;;;4929830;28;20459;-84
2021/04/13 11:44:18;;;;;;;6.57;5.87;;;9.30;55.30;;;;;;4976887;28;20575;-84
2021/04/13 11:46:46;;;;;;;6.80;6.20;;;9.70;57.50;;;;;;4963898;28;20487;-84
2021/04/13 11:49:18;;;;;;;6.53;5.93;;;10.80;59.10;;;;;;4957205;28;20785;-84
2021/04/13 11:52:37;;;;;;;5.53;5.13;;;11.80;59.10;;;;;;4961738;28;20549;-85
2021/04/13 11:55:23;;;;;;;4.57;4.17;;;12.60;52.40;;;;;;4958001;28;21737;-84
2021/04/13 11:58:14;;;;;;;4.87;4.47;;;12.60;45.00;;;;;;4961866;28;20444;-84
2021/04/13 12:00:41;;;;;;;5.17;4.77;;;12.00;41.40;;;;;;4956433;28;20551;-84
2021/04/13 12:03:09;;;;;;;5.60;5.10;;;12.50;45.20;;;;;;4968436;28;20481;-83
2021/04/13 12:05:49;;;;;;;4.73;4.33;;;12.70;45.50;;;;;;4970914;28;20658;-84
2021/04/13 12:08:50;;;;;;;4.23;3.93;;;13.10;45.10;;;;;;4970050;28;20445;-84
2021/04/13 12:11:36;;;;;;;4.90;4.50;;;13.10;42.50;;;;;;4946319;28;21036;-84
2021/04/13 12:14:24;;;;;;;5.30;4.90;;;12.80;43.10;;;;;;4983926;28;20466;-84
2021/04/13 12:16:51;;;;;;;5.20;4.80;;;13.40;43.20;;;;;;4968618;28;20441;-84
2021/04/13 12:19:18;;;;;;;4.83;4.43;;;12.80;44.90;;;;;;4943988;28;20469;-84
2021/04/13 12:21:47;;;;;;;4.70;4.37;;;13.50;45.70;;;;;;4974523;28;20480;-84
2021/04/13 12:24:41;;;;;;;6.30;5.70;;;13.80;43.10;;;;;;4957372;28;20488;-84
2021/04/13 12:27:25;;;;;;;6.53;6.03;;;14.30;45.40;;;;;;4965113;28;21108;-84
2021/04/13 12:29:52;;;;;;;5.33;4.83;;;13.20;45.60;;;;;;4976784;28;20949;-84
2021/04/13 12:32:18;;;;;;;6.73;6.13;;;12.70;41.70;;;;;;4976239;28;20453;-84
2021/04/13 12:34:48;;;;;;;5.70;5.17;;;12.40;43.10;;;;;;4959424;28;20460;-84
2021/04/13 12:37:45;;;;;;;5.93;5.53;;;11.90;44.30;;;;;;4975103;28;20221;-83
2021/04/13 12:40:19;;;;;;;6.33;5.83;;;12.50;46.40;;;;;;4958850;28;20503;-84
2021/04/13 12:42:48;;;;;;;6.03;5.53;;;13.60;46.40;;;;;;4970665;28;20860;-84
2021/04/13 12:45:23;;;;;;;5.80;5.30;;;14.10;43.00;;;;;;4962058;28;21229;-84
2021/04/13 12:48:00;;;;;;;6.23;5.70;;;13.40;41.90;;;;;;4987192;28;20456;-84
2021/04/13 12:50:31;;;;;;;11.47;7.40;;;12.50;46.00;;;;;;4974854;28;20479;-84
2021/04/13 12:52:57;;;;;;;6.43;5.70;;;12.10;50.00;;;;;;4973430;28;20459;-84
2021/04/13 12:55:24;;;;;;;14.00;7.23;;;11.80;50.60;;;;;;4976751;28;20470;-84
2021/04/13 12:57:58;;;;;;;15.00;9.27;;;11.30;51.90;;;;;;4959835;28;20452;-84
2021/04/13 13:00:34;;;;;;;8.27;6.43;;;11.50;57.60;;;;;;4959042;28;20473;-84
2021/04/13 13:03:30;;;;;;;13.10;6.00;;;12.90;56.20;;;;;;4958316;28;20472;-84
2021/04/13 13:05:57;;;;;;;11.70;6.00;;;14.00;54.40;;;;;;4960332;28;20456;-84
2021/04/13 13:08:29;;;;;;;11.07;5.50;;;13.30;51.60;;;;;;4969877;28;20473;-84
2021/04/13 13:10:56;;;;;;;12.23;5.70;;;12.30;51.30;;;;;;4973169;28;20482;-84
2021/04/13 13:13:29;;;;;;;4.20;3.70;;;11.90;50.50;;;;;;4953802;28;20792;-83
2021/04/13 13:15:59;;;;;;;4.20;3.90;;;11.50;49.00;;;;;;4955760;28;20591;-83
2021/04/13 13:18:31;;;;;;;4.10;3.70;;;11.70;48.40;;;;;;4973032;28;20814;-83
2021/04/13 13:21:15;;;;;;;4.40;4.10;;;11.90;48.50;;;;;;4958767;28;20453;-83
2021/04/13 13:23:44;;;;;;;3.67;3.03;;;12.10;48.00;;;;;;4963843;28;20476;-83
2021/04/13 13:26:14;;;;;;;3.20;3.00;;;12.30;44.20;;;;;;4980395;28;20440;-84
2021/04/13 13:28:43;;;;;;;3.63;3.40;;;12.00;46.10;;;;;;4956702;28;20445;-84
2021/04/13 13:31:18;;;;;;;3.50;3.20;;;12.00;45.60;;;;;;4950257;28;20527;-83
2021/04/13 13:33:46;;;;;;;3.37;3.07;;;12.20;45.60;;;;;;4956979;28;20444;-83
2021/04/13 13:36:14;;;;;;;3.37;3.13;;;12.50;46.10;;;;;;4970715;28;20963;-83
2021/04/13 13:38:42;;;;;;;3.53;3.23;;;12.60;45.60;;;;;;4958609;28;20457;-84
2021/04/13 13:41:08;;;;;;;3.67;3.37;;;12.90;44.00;;;;;;4968219;28;20800;-84
2021/04/13 13:43:36;;;;;;;3.37;3.10;;;13.30;41.20;;;;;;4974426;28;20539;-83